Time;durP1;ratioP1;P1;durP2;ratioP2;P2;SDS_P1;SDS_P2;PMS_P1;PMS_P2;Temp;Humidity;BMP_temperature;BMP_pressure;BME280_temperature;BME280_humidity;BME280_pressure;Samples;Min_cycle;Max_cycle;Signal;HPM_P1;HPM_P2
2021/07/31 00:01:28;;;;;;;9.07;2.60;;;18.20;99.90;;;;;;4983031;28;20189;-92
2021/07/31 00:03:55;;;;;;;8.90;2.23;;;18.20;99.90;;;;;;4964999;28;20214;-91
2021/07/31 00:06:20;;;;;;;8.90;2.73;;;18.30;99.90;;;;;;4969635;28;20216;-93
2021/07/31 00:08:46;;;;;;;10.80;2.67;;;18.20;99.90;;;;;;4968352;28;20194;-90
2021/07/31 00:11:12;;;;;;;14.03;2.60;;;18.20;99.90;;;;;;4969236;28;20204;-89
2021/07/31 00:13:38;;;;;;;7.47;2.10;;;18.30;99.90;;;;;;4982193;28;20646;-91
2021/07/31 00:16:04;;;;;;;3.80;2.13;;;18.50;99.90;;;;;;4975926;28;20243;-90
2021/07/31 00:18:30;;;;;;;7.47;2.60;;;18.50;99.90;;;;;;4965343;28;20194;-90
2021/07/31 00:20:57;;;;;;;9.27;2.73;;;18.40;99.90;;;;;;4960243;28;20266;-89
2021/07/31 00:23:26;;;;;;;6.40;2.50;;;18.30;99.90;;;;;;4956810;28;20187;-93
2021/07/31 00:25:55;;;;;;;6.97;2.27;;;18.20;99.90;;;;;;4962950;28;20306;-92
2021/07/31 00:28:24;;;;;;;7.43;2.77;;;18.20;99.90;;;;;;4949308;28;20186;-91
2021/07/31 00:30:51;;;;;;;9.50;2.40;;;18.30;99.90;;;;;;4954104;28;20222;-86
2021/07/31 00:33:16;;;;;;;5.77;2.47;;;18.40;99.90;;;;;;4955638;28;20288;-92
2021/07/31 00:35:42;;;;;;;7.87;2.20;;;18.40;99.90;;;;;;4984777;28;20285;-92
2021/07/31 00:38:08;;;;;;;7.93;2.90;;;18.40;99.90;;;;;;4951827;28;20202;-92
2021/07/31 00:40:35;;;;;;;6.07;2.50;;;18.40;99.90;;;;;;4953392;28;20195;-91
2021/07/31 00:43:07;;;;;;;7.10;2.20;;;18.30;99.90;;;;;;4975435;28;20629;-86
2021/07/31 00:45:34;;;;;;;6.70;2.30;;;18.20;99.90;;;;;;4977191;28;20281;-92
2021/07/31 00:48:00;;;;;;;9.40;2.83;;;18.20;99.90;;;;;;4956528;28;20711;-91
2021/07/31 00:50:27;;;;;;;9.60;2.53;;;18.00;99.90;;;;;;4957570;28;20244;-91
2021/07/31 00:52:54;;;;;;;9.87;2.87;;;17.90;99.90;;;;;;4956931;28;21087;-91
2021/07/31 00:55:20;;;;;;;8.93;2.67;;;18.00;99.90;;;;;;4957045;28;20196;-91
2021/07/31 00:57:49;;;;;;;8.77;2.53;;;18.00;99.90;;;;;;4977283;28;20210;-88
2021/07/31 01:00:15;;;;;;;5.63;2.17;;;18.00;99.90;;;;;;4948394;28;20189;-90
2021/07/31 01:02:40;;;;;;;9.23;2.97;;;18.00;99.90;;;;;;4955653;28;20197;-91
2021/07/31 01:05:06;;;;;;;7.57;2.43;;;18.00;99.90;;;;;;4969439;28;20221;-91
2021/07/31 01:07:34;;;;;;;10.57;3.33;;;18.10;99.90;;;;;;4957483;28;20185;-91
2021/07/31 01:10:00;;;;;;;10.77;2.90;;;17.90;99.90;;;;;;4958883;28;20185;-91
2021/07/31 01:12:26;;;;;;;9.00;2.73;;;17.90;99.90;;;;;;4957338;28;20235;-91
2021/07/31 01:14:51;;;;;;;7.80;2.90;;;17.80;99.90;;;;;;4970421;28;20554;-92
2021/07/31 01:17:17;;;;;;;6.23;2.93;;;17.70;99.90;;;;;;4961943;28;20512;-87
2021/07/31 01:19:42;;;;;;;7.37;2.70;;;17.70;99.90;;;;;;4951817;28;20217;-91
2021/07/31 01:22:08;;;;;;;7.03;3.47;;;17.60;99.90;;;;;;4955270;28;20640;-91
2021/07/31 01:24:34;;;;;;;9.10;2.83;;;17.60;99.90;;;;;;4957823;28;20568;-90
2021/07/31 01:27:00;;;;;;;8.97;3.00;;;17.50;99.90;;;;;;4950588;28;20182;-90
2021/07/31 01:29:25;;;;;;;8.37;2.57;;;17.60;99.90;;;;;;4951853;28;20207;-93
2021/07/31 01:31:51;;;;;;;7.97;3.00;;;17.70;99.90;;;;;;4953214;28;20250;-93
2021/07/31 01:34:17;;;;;;;9.47;3.23;;;17.50;99.90;;;;;;4952490;28;20226;-92
2021/07/31 01:36:42;;;;;;;11.43;3.00;;;17.50;99.90;;;;;;4950827;28;20197;-93
2021/07/31 01:39:08;;;;;;;11.13;2.77;;;17.50;99.90;;;;;;4959415;28;20204;-92
2021/07/31 01:41:33;;;;;;;5.60;3.10;;;17.50;99.90;;;;;;4953693;28;20636;-92
2021/07/31 01:43:59;;;;;;;8.13;3.13;;;17.60;99.90;;;;;;4956373;28;20219;-92
2021/07/31 01:46:25;;;;;;;9.33;2.80;;;17.80;99.90;;;;;;4944643;28;20193;-92
2021/07/31 01:48:51;;;;;;;10.83;2.70;;;17.90;99.90;;;;;;4952984;28;20188;-92
2021/07/31 01:51:17;;;;;;;8.17;3.07;;;17.90;99.90;;;;;;4969835;28;20192;-91
2021/07/31 01:53:42;;;;;;;6.70;2.90;;;17.70;99.90;;;;;;4966875;28;20191;-91
2021/07/31 01:56:08;;;;;;;11.03;2.60;;;17.70;99.90;;;;;;4956937;28;20191;-91
2021/07/31 01:58:34;;;;;;;11.27;3.63;;;17.80;99.90;;;;;;4954977;28;20187;-91
2021/07/31 02:01:00;;;;;;;8.43;2.50;;;17.70;99.90;;;;;;4983810;28;20182;-89
2021/07/31 02:03:26;;;;;;;7.00;2.80;;;17.80;99.90;;;;;;4958859;28;20176;-91
2021/07/31 02:05:54;;;;;;;8.37;2.80;;;17.80;99.90;;;;;;4949001;28;20287;-89
2021/07/31 02:08:20;;;;;;;9.87;2.90;;;17.70;99.90;;;;;;4954725;28;20181;-90
2021/07/31 02:10:46;;;;;;;7.20;2.67;;;17.70;99.90;;;;;;4954388;28;20186;-91
2021/07/31 02:13:13;;;;;;;6.23;2.77;;;17.60;99.90;;;;;;4952379;28;20255;-91
2021/07/31 02:15:43;;;;;;;5.87;2.50;;;17.50;99.90;;;;;;4953770;28;20644;-92
2021/07/31 02:18:09;;;;;;;6.00;2.70;;;17.50;99.90;;;;;;4949056;28;20189;-92
2021/07/31 02:20:35;;;;;;;6.40;2.63;;;17.60;99.90;;;;;;4969420;28;20259;-90
2021/07/31 02:23:01;;;;;;;5.10;2.47;;;17.60;99.90;;;;;;4952994;28;20612;-91
2021/07/31 02:25:26;;;;;;;12.40;2.43;;;17.60;99.90;;;;;;4945253;28;20244;-91
2021/07/31 02:27:52;;;;;;;8.03;2.70;;;17.60;99.90;;;;;;4954965;28;20192;-88
2021/07/31 02:30:18;;;;;;;7.87;2.50;;;17.70;99.90;;;;;;4953697;28;20210;-91
2021/07/31 02:32:44;;;;;;;7.87;3.20;;;17.50;99.90;;;;;;4973663;28;20181;-91
2021/07/31 02:35:11;;;;;;;8.53;3.07;;;17.40;99.90;;;;;;4951272;28;20714;-90
2021/07/31 02:37:37;;;;;;;9.77;2.70;;;17.50;99.90;;;;;;4955798;28;20188;-92
2021/07/31 02:40:03;;;;;;;12.20;3.03;;;17.60;99.90;;;;;;4949777;28;20197;-91
2021/07/31 02:42:29;;;;;;;8.70;3.17;;;17.70;99.90;;;;;;4956118;28;20193;-90
2021/07/31 02:44:54;;;;;;;9.47;3.17;;;17.50;99.90;;;;;;4958405;28;20236;-87
2021/07/31 02:47:20;;;;;;;8.97;3.30;;;17.50;99.90;;;;;;4956509;28;20213;-92
2021/07/31 02:49:46;;;;;;;8.43;3.27;;;17.50;99.90;;;;;;4971803;28;20197;-92
2021/07/31 02:52:11;;;;;;;10.23;3.17;;;17.50;99.90;;;;;;4945099;28;20188;-92
2021/07/31 02:54:37;;;;;;;11.63;3.23;;;17.40;99.90;;;;;;4971601;28;20191;-89
2021/07/31 02:57:03;;;;;;;9.50;3.33;;;17.30;99.90;;;;;;4976640;28;20189;-91
2021/07/31 02:59:28;;;;;;;7.63;3.27;;;17.30;99.90;;;;;;4969093;28;20198;-92
2021/07/31 03:01:54;;;;;;;12.60;3.00;;;17.40;99.90;;;;;;4958285;28;20188;-89
2021/07/31 03:04:20;;;;;;;8.43;2.73;;;17.30;99.90;;;;;;4961902;28;20221;-92
2021/07/31 03:06:45;;;;;;;7.40;3.10;;;17.40;99.90;;;;;;4956285;29;20293;-93
2021/07/31 03:09:11;;;;;;;6.63;2.87;;;17.40;99.90;;;;;;4946270;28;20192;-92
2021/07/31 03:11:36;;;;;;;6.63;2.90;;;17.40;99.90;;;;;;4959471;28;20225;-93
2021/07/31 03:14:02;;;;;;;9.13;3.37;;;17.50;99.90;;;;;;4957332;28;20595;-90
2021/07/31 03:16:28;;;;;;;6.77;3.33;;;17.50;99.90;;;;;;4951573;28;20196;-86
2021/07/31 03:18:53;;;;;;;13.07;3.20;;;17.40;99.90;;;;;;4956311;28;20558;-91
2021/07/31 03:21:19;;;;;;;9.50;3.40;;;17.30;99.90;;;;;;4955139;28;20224;-91
2021/07/31 03:23:44;;;;;;;9.17;3.43;;;17.30;99.90;;;;;;4985277;28;20274;-91
2021/07/31 03:26:10;;;;;;;8.77;3.90;;;17.30;99.90;;;;;;4959505;28;20567;-91
2021/07/31 03:28:37;;;;;;;11.57;3.63;;;17.30;99.90;;;;;;4957610;28;20197;-91
2021/07/31 03:31:03;;;;;;;10.93;3.33;;;17.20;99.90;;;;;;4952112;28;20216;-90
2021/07/31 03:33:28;;;;;;;8.73;3.50;;;17.20;99.90;;;;;;4973980;28;20186;-89
2021/07/31 03:35:54;;;;;;;12.67;3.30;;;17.20;99.90;;;;;;4957341;28;20613;-91
2021/07/31 03:38:20;;;;;;;8.97;3.23;;;17.10;99.90;;;;;;4959217;28;20264;-92
2021/07/31 03:40:46;;;;;;;10.70;3.47;;;17.00;99.90;;;;;;4958382;28;20288;-91
2021/07/31 03:43:16;;;;;;;8.60;3.37;;;17.10;99.90;;;;;;4954671;29;20189;-91
2021/07/31 03:45:42;;;;;;;9.30;3.43;;;17.10;99.90;;;;;;4977719;28;20229;-87
2021/07/31 03:48:08;;;;;;;9.47;3.57;;;17.20;99.90;;;;;;4957847;28;20555;-91
2021/07/31 03:50:38;;;;;;;8.93;3.80;;;17.20;99.90;;;;;;4970447;28;20224;-91
2021/07/31 03:53:04;;;;;;;7.57;3.17;;;17.30;99.90;;;;;;4946503;28;20181;-91
2021/07/31 03:55:29;;;;;;;9.30;3.97;;;17.10;99.90;;;;;;4954864;29;20192;-92
2021/07/31 03:57:55;;;;;;;8.60;3.30;;;17.10;99.90;;;;;;4954129;28;20720;-92
2021/07/31 04:00:20;;;;;;;8.20;3.17;;;17.00;99.90;;;;;;4957648;28;20191;-92
2021/07/31 04:02:46;;;;;;;10.13;3.07;;;17.10;99.90;;;;;;4956203;28;20288;-91
2021/07/31 04:05:11;;;;;;;5.07;3.00;;;17.10;99.90;;;;;;4953481;28;20216;-90
2021/07/31 04:07:37;;;;;;;7.10;3.13;;;17.10;99.90;;;;;;4950991;28;20192;-91
2021/07/31 04:10:03;;;;;;;9.23;4.17;;;17.20;99.90;;;;;;4974657;28;20244;-92
2021/07/31 04:12:29;;;;;;;9.07;3.53;;;17.20;99.90;;;;;;4950179;28;20186;-91
2021/07/31 04:14:54;;;;;;;11.53;3.57;;;17.20;99.90;;;;;;4967444;28;20258;-91
2021/07/31 04:17:20;;;;;;;9.37;3.60;;;17.20;99.90;;;;;;4972970;28;20177;-89
2021/07/31 04:19:45;;;;;;;9.43;3.20;;;17.10;99.90;;;;;;4967361;28;20188;-93
2021/07/31 04:22:11;;;;;;;9.03;3.83;;;17.10;99.90;;;;;;4957526;28;20194;-94
2021/07/31 04:24:37;;;;;;;9.83;3.87;;;17.10;99.90;;;;;;4956152;28;20201;-94
2021/07/31 04:27:04;;;;;;;8.77;3.60;;;17.20;99.90;;;;;;4964986;28;20271;-93
2021/07/31 04:29:30;;;;;;;9.63;4.50;;;17.00;99.90;;;;;;4951165;28;20201;-91
2021/07/31 04:31:55;;;;;;;8.30;4.03;;;17.10;99.90;;;;;;4949638;28;20186;-87
2021/07/31 04:34:21;;;;;;;12.27;4.10;;;17.10;99.90;;;;;;4987809;28;20282;-84
2021/07/31 04:36:46;;;;;;;9.13;4.30;;;17.10;99.90;;;;;;4973286;28;20189;-91
2021/07/31 04:39:12;;;;;;;7.70;3.63;;;17.30;99.90;;;;;;4956704;28;20188;-86
2021/07/31 04:41:38;;;;;;;7.30;3.87;;;17.20;99.90;;;;;;4950939;28;20247;-83
2021/07/31 04:44:04;;;;;;;8.73;3.67;;;17.20;99.90;;;;;;4979090;28;20212;-86
2021/07/31 04:46:29;;;;;;;9.30;3.60;;;17.10;99.90;;;;;;4952364;28;20215;-90
2021/07/31 04:48:55;;;;;;;10.23;3.97;;;17.10;99.90;;;;;;4975873;28;20187;-89
2021/07/31 04:51:20;;;;;;;11.67;3.60;;;17.10;99.90;;;;;;4952276;28;20189;-87
2021/07/31 04:53:47;;;;;;;9.87;3.90;;;17.00;99.90;;;;;;4956654;28;20183;-91
2021/07/31 04:56:12;;;;;;;11.37;3.97;;;17.00;99.90;;;;;;4963616;28;20193;-90
2021/07/31 04:58:38;;;;;;;10.97;3.80;;;16.90;99.90;;;;;;4988734;28;20652;-88
2021/07/31 05:01:04;;;;;;;12.40;3.83;;;16.90;99.90;;;;;;4973759;28;20192;-89
2021/07/31 05:03:30;;;;;;;8.60;3.67;;;16.80;99.90;;;;;;4956037;28;20180;-91
2021/07/31 05:05:56;;;;;;;8.03;3.93;;;16.90;99.90;;;;;;4955146;28;20216;-88
2021/07/31 05:08:22;;;;;;;9.23;4.03;;;16.80;99.90;;;;;;4945099;28;20191;-91
2021/07/31 05:10:50;;;;;;;14.97;5.30;;;16.80;99.90;;;;;;4978071;28;20184;-85
2021/07/31 05:13:17;;;;;;;12.40;4.57;;;16.80;99.90;;;;;;4956834;28;20274;-90
2021/07/31 05:15:44;;;;;;;11.07;4.30;;;16.70;99.90;;;;;;4957933;28;20180;-91
2021/07/31 05:18:10;;;;;;;15.50;4.33;;;16.80;99.90;;;;;;4952388;28;20206;-88
2021/07/31 05:20:45;;;;;;;10.43;4.30;;;16.80;99.90;;;;;;4967792;28;20194;-92
2021/07/31 05:23:13;;;;;;;9.67;4.87;;;16.90;99.90;;;;;;4971798;28;20244;-91
2021/07/31 05:25:40;;;;;;;12.13;4.63;;;16.90;99.90;;;;;;4954048;28;20225;-87
2021/07/31 05:28:05;;;;;;;11.57;3.97;;;16.90;99.90;;;;;;4975263;28;20191;-93
2021/07/31 05:30:32;;;;;;;9.20;4.43;;;17.00;99.90;;;;;;4971908;28;20582;-87
2021/07/31 05:32:57;;;;;;;7.13;3.87;;;17.10;99.90;;;;;;4945685;28;20193;-89
2021/07/31 05:35:23;;;;;;;12.63;4.57;;;17.30;99.90;;;;;;4982356;28;20207;-88
2021/07/31 05:37:48;;;;;;;14.03;4.87;;;17.30;99.90;;;;;;4956570;28;20201;-88
2021/07/31 05:40:14;;;;;;;13.73;4.10;;;17.40;99.90;;;;;;4954973;28;20257;-86
2021/07/31 05:42:41;;;;;;;8.87;4.10;;;17.40;99.90;;;;;;4971884;28;20284;-94
2021/07/31 05:45:07;;;;;;;12.13;4.30;;;17.50;99.90;;;;;;4947926;28;20677;-91
2021/07/31 05:47:33;;;;;;;12.33;4.60;;;17.40;99.90;;;;;;4962477;28;20191;-91
2021/07/31 05:50:00;;;;;;;9.90;4.00;;;17.30;99.90;;;;;;4946499;28;20186;-92
2021/07/31 05:52:26;;;;;;;11.23;4.53;;;17.40;99.90;;;;;;4943670;28;20194;-86
2021/07/31 05:54:53;;;;;;;11.00;4.30;;;17.40;99.90;;;;;;4946818;28;20660;-89
2021/07/31 05:57:19;;;;;;;9.23;4.27;;;17.50;99.90;;;;;;4973091;28;20197;-92
2021/07/31 05:59:45;;;;;;;11.03;4.13;;;17.40;99.90;;;;;;4947487;28;20568;-87
2021/07/31 06:02:11;;;;;;;15.67;3.53;;;17.40;99.90;;;;;;4949497;28;20232;-90
2021/07/31 06:04:37;;;;;;;14.90;4.10;;;17.60;99.90;;;;;;4970773;28;20699;-91
2021/07/31 06:07:06;;;;;;;12.40;4.57;;;17.50;99.90;;;;;;4946123;28;20196;-90
2021/07/31 06:09:33;;;;;;;8.33;3.87;;;17.60;99.90;;;;;;4973128;28;20279;-88
2021/07/31 06:11:59;;;;;;;6.57;3.10;;;17.80;99.90;;;;;;4944265;28;20197;-92
2021/07/31 06:14:27;;;;;;;7.63;3.77;;;17.90;99.90;;;;;;4949016;28;20194;-91
2021/07/31 06:16:53;;;;;;;11.10;4.13;;;17.80;99.90;;;;;;4949174;28;20625;-87
2021/07/31 06:19:18;;;;;;;8.70;4.10;;;17.90;99.90;;;;;;4952437;28;20216;-92
2021/07/31 06:21:44;;;;;;;9.37;4.63;;;17.80;99.90;;;;;;4968539;28;20247;-93
2021/07/31 06:24:11;;;;;;;8.87;4.40;;;17.60;99.90;;;;;;4947912;28;20320;-93
2021/07/31 06:26:36;;;;;;;8.53;4.53;;;17.60;99.90;;;;;;4948324;28;20624;-90
2021/07/31 06:29:03;;;;;;;6.33;4.47;;;17.50;99.90;;;;;;4952226;28;20206;-91
2021/07/31 06:31:29;;;;;;;7.93;4.77;;;17.50;99.90;;;;;;4948665;28;20192;-90
2021/07/31 06:33:57;;;;;;;7.53;4.70;;;17.50;99.90;;;;;;4948601;28;20642;-89
2021/07/31 06:36:23;;;;;;;12.73;4.97;;;17.70;99.90;;;;;;4953809;28;20273;-91
2021/07/31 06:38:48;;;;;;;7.10;4.53;;;17.80;99.90;;;;;;4956122;28;20232;-90
2021/07/31 06:41:14;;;;;;;7.37;4.37;;;17.90;99.90;;;;;;4952463;28;20200;-90
2021/07/31 06:43:39;;;;;;;8.93;3.97;;;17.80;99.90;;;;;;4957985;28;20277;-89
2021/07/31 06:46:12;;;;;;;10.10;4.70;;;17.90;99.90;;;;;;4961497;28;20592;-92
2021/07/31 06:48:38;;;;;;;9.87;4.67;;;17.80;99.90;;;;;;4984029;28;20186;-90
2021/07/31 06:51:03;;;;;;;7.53;4.70;;;17.90;99.90;;;;;;4960016;28;20529;-90
2021/07/31 06:53:29;;;;;;;9.13;4.43;;;17.90;99.90;;;;;;4973092;28;20204;-93
2021/07/31 06:55:58;;;;;;;9.80;4.33;;;18.10;99.90;;;;;;4952288;28;20183;-88
2021/07/31 06:58:24;;;;;;;8.77;3.80;;;18.20;99.90;;;;;;4958207;28;20183;-92
2021/07/31 07:00:50;;;;;;;11.00;4.13;;;18.30;99.90;;;;;;4949967;28;20201;-92
2021/07/31 07:03:16;;;;;;;6.67;3.97;;;18.30;99.90;;;;;;4970477;28;20182;-91
2021/07/31 07:05:41;;;;;;;7.43;3.73;;;18.40;99.90;;;;;;4958140;28;20218;-91
2021/07/31 07:08:07;;;;;;;7.23;3.83;;;18.50;99.90;;;;;;4975216;28;20181;-93
2021/07/31 07:10:34;;;;;;;8.63;3.97;;;18.50;99.90;;;;;;4951169;29;20681;-92
2021/07/31 07:12:59;;;;;;;6.83;3.80;;;18.40;99.90;;;;;;4975347;28;20547;-93
2021/07/31 07:15:27;;;;;;;5.73;3.40;;;18.60;99.90;;;;;;4950060;28;20277;-88
2021/07/31 07:17:58;;;;;;;7.07;4.17;;;18.70;99.90;;;;;;4991926;28;20627;-90
2021/07/31 07:20:25;;;;;;;8.73;4.20;;;18.80;99.90;;;;;;4956550;28;20194;-89
2021/07/31 07:22:51;;;;;;;8.57;4.23;;;18.80;99.90;;;;;;4960779;28;20178;-90
2021/07/31 07:25:17;;;;;;;8.93;4.47;;;18.80;99.90;;;;;;4976635;28;20266;-92
2021/07/31 07:27:45;;;;;;;6.23;4.27;;;18.80;99.90;;;;;;4966367;28;20625;-88
2021/07/31 07:30:11;;;;;;;8.37;4.37;;;18.90;99.90;;;;;;4992942;28;20210;-93
2021/07/31 07:32:38;;;;;;;7.30;3.63;;;18.90;99.90;;;;;;4970603;28;20195;-92
2021/07/31 07:35:05;;;;;;;8.17;3.97;;;19.10;99.90;;;;;;4958724;28;20193;-93
2021/07/31 07:37:30;;;;;;;5.87;3.63;;;19.20;99.90;;;;;;4970719;28;20202;-93
2021/07/31 07:39:59;;;;;;;8.87;3.87;;;19.00;99.90;;;;;;4952568;28;20187;-93
2021/07/31 07:42:25;;;;;;;5.97;3.43;;;19.00;99.90;;;;;;4974568;28;20723;-92
2021/07/31 07:44:51;;;;;;;6.10;3.97;;;19.00;99.90;;;;;;4949315;28;20314;-92
2021/07/31 07:47:16;;;;;;;6.70;3.90;;;18.90;99.90;;;;;;4957908;28;20186;-92
2021/07/31 07:49:42;;;;;;;8.73;3.73;;;19.10;99.90;;;;;;4957000;28;20321;-93
2021/07/31 07:52:08;;;;;;;6.40;3.40;;;19.10;99.90;;;;;;4950994;28;20223;-93
2021/07/31 07:54:33;;;;;;;6.53;3.73;;;19.10;99.90;;;;;;4969750;28;20191;-93
2021/07/31 07:57:05;;;;;;;5.90;3.70;;;19.10;99.90;;;;;;4954461;28;20187;-93
2021/07/31 07:59:30;;;;;;;6.07;3.30;;;19.00;99.90;;;;;;4953488;28;20328;-93
2021/07/31 08:01:56;;;;;;;8.63;3.43;;;19.10;99.90;;;;;;4988538;28;20306;-90
2021/07/31 08:04:22;;;;;;;5.17;3.67;;;19.10;99.90;;;;;;4956554;28;20218;-91
2021/07/31 08:06:48;;;;;;;7.67;4.00;;;19.00;99.90;;;;;;4955072;28;20598;-93
2021/07/31 08:09:14;;;;;;;7.30;4.03;;;18.80;99.90;;;;;;4956360;28;20187;-89
2021/07/31 08:11:43;;;;;;;7.40;3.43;;;18.60;99.90;;;;;;4960683;28;20184;-92
2021/07/31 08:14:10;;;;;;;7.57;3.90;;;18.50;99.90;;;;;;4977691;28;20223;-88
2021/07/31 08:16:36;;;;;;;4.53;3.10;;;18.60;99.90;;;;;;4955157;28;20208;-92
2021/07/31 08:19:03;;;;;;;6.00;3.20;;;18.70;99.90;;;;;;4966187;28;20192;-93
2021/07/31 08:21:29;;;;;;;4.57;2.90;;;18.80;99.90;;;;;;4972924;28;20284;-91
2021/07/31 08:23:55;;;;;;;7.13;3.53;;;18.60;99.90;;;;;;4953936;28;20197;-92
2021/07/31 08:26:21;;;;;;;4.20;2.93;;;18.60;99.90;;;;;;4956853;28;20183;-92
2021/07/31 08:28:47;;;;;;;6.33;3.77;;;18.50;99.90;;;;;;4952188;28;20189;-90
2021/07/31 08:31:14;;;;;;;8.03;3.27;;;18.80;99.90;;;;;;4972939;28;20194;-89
2021/07/31 08:33:40;;;;;;;7.63;3.40;;;19.00;99.90;;;;;;4990363;28;20257;-83
2021/07/31 08:36:07;;;;;;;5.47;3.00;;;19.00;99.90;;;;;;4977732;28;20256;-92
2021/07/31 08:38:32;;;;;;;6.03;3.20;;;19.10;99.90;;;;;;4964847;28;20297;-90
2021/07/31 08:41:01;;;;;;;5.50;3.23;;;19.10;99.90;;;;;;4982823;28;20190;-90
2021/07/31 08:43:30;;;;;;;4.50;3.10;;;19.00;99.90;;;;;;4990103;28;20182;-92
2021/07/31 08:46:05;;;;;;;10.33;3.70;;;19.00;99.90;;;;;;4971497;28;20235;-91
2021/07/31 08:48:32;;;;;;;6.63;2.97;;;19.10;99.90;;;;;;4967864;28;20197;-87
2021/07/31 08:51:01;;;;;;;7.03;3.30;;;19.10;99.90;;;;;;4964023;28;20193;-87
2021/07/31 08:53:28;;;;;;;8.60;3.40;;;19.10;99.90;;;;;;4961319;28;20193;-92
2021/07/31 08:55:55;;;;;;;9.97;3.77;;;19.20;99.90;;;;;;4960773;28;20188;-88
2021/07/31 08:58:24;;;;;;;7.43;3.40;;;19.20;99.90;;;;;;4983944;28;20195;-86
2021/07/31 09:00:51;;;;;;;6.53;3.17;;;19.20;99.90;;;;;;4970316;28;20200;-85
2021/07/31 09:03:17;;;;;;;4.67;3.20;;;19.20;99.90;;;;;;4963345;28;20265;-88
2021/07/31 09:05:43;;;;;;;9.40;3.77;;;19.20;99.90;;;;;;4958583;28;20233;-84
2021/07/31 09:08:09;;;;;;;9.47;3.27;;;19.20;99.90;;;;;;4968126;28;20565;-86
2021/07/31 09:21:12;;;;;;;5.33;2.87;;;19.60;99.90;;;;;;5020557;23;20766;-91
2021/07/31 09:23:52;;;;;;;6.77;3.20;;;19.80;99.90;;;;;;4996831;28;20193;-92
2021/07/31 09:26:43;;;;;;;5.73;2.83;;;20.10;99.90;;;;;;4988932;28;20217;-92
2021/07/31 09:29:13;;;;;;;9.50;3.17;;;20.30;99.90;;;;;;4994012;28;20210;-91
2021/07/31 09:31:44;;;;;;;9.50;3.53;;;20.40;99.90;;;;;;5006404;28;20198;-92
2021/07/31 09:34:11;;;;;;;5.03;3.07;;;20.50;99.90;;;;;;5021654;28;20187;-91
2021/07/31 09:36:41;;;;;;;5.93;3.10;;;20.60;99.90;;;;;;5016935;28;20672;-91
2021/07/31 09:39:11;;;;;;;7.60;3.50;;;20.50;99.90;;;;;;5019372;28;20187;-91
2021/07/31 09:41:40;;;;;;;8.10;3.23;;;20.30;99.90;;;;;;5024126;28;20194;-91
2021/07/31 09:44:16;;;;;;;6.30;3.40;;;20.20;99.90;;;;;;5016589;28;20185;-91
2021/07/31 09:46:48;;;;;;;5.53;3.00;;;20.30;99.90;;;;;;5016976;28;20178;-92
2021/07/31 09:49:19;;;;;;;10.90;4.07;;;20.30;99.90;;;;;;5017835;28;20263;-91
2021/07/31 09:51:50;;;;;;;4.93;2.50;;;20.20;99.90;;;;;;5033031;28;20272;-91
2021/07/31 09:54:21;;;;;;;3.17;2.00;;;20.20;99.90;;;;;;5025507;28;20272;-91
2021/07/31 09:56:56;;;;;;;6.90;2.50;;;20.30;99.90;;;;;;5026027;28;20230;-89
2021/07/31 09:59:23;;;;;;;3.30;2.13;;;20.30;99.90;;;;;;5041035;28;20267;-92
2021/07/31 10:02:01;;;;;;;5.63;2.50;;;20.50;99.90;;;;;;5029743;28;20195;-91
2021/07/31 10:04:28;;;;;;;4.00;2.80;;;20.70;99.90;;;;;;5036609;28;20217;-90
2021/07/31 10:06:58;;;;;;;6.70;2.70;;;20.80;99.90;;;;;;5038216;28;20188;-91
2021/07/31 10:09:27;;;;;;;7.50;3.03;;;21.00;99.90;;;;;;5011863;28;20185;-91
2021/07/31 10:11:53;;;;;;;4.27;2.70;;;21.20;99.90;;;;;;5031426;28;20638;-92
2021/07/31 10:14:23;;;;;;;4.17;2.23;;;21.30;99.90;;;;;;5022681;28;20185;-90
2021/07/31 10:16:49;;;;;;;6.63;2.83;;;21.40;99.90;;;;;;5026384;28;20274;-90
2021/07/31 10:19:16;;;;;;;7.40;2.70;;;21.40;99.90;;;;;;5027906;28;20184;-90
2021/07/31 10:22:00;;;;;;;6.23;2.80;;;21.50;99.90;;;;;;5023270;28;20178;-91
2021/07/31 10:24:49;;;;;;;6.80;2.97;;;21.50;99.90;;;;;;5027307;28;20646;-91
2021/07/31 10:27:23;;;;;;;4.67;2.70;;;21.70;99.90;;;;;;5022227;28;20625;-92
2021/07/31 10:29:53;;;;;;;7.33;2.90;;;22.10;99.90;;;;;;5022694;28;20297;-91
2021/07/31 10:32:21;;;;;;;5.33;3.03;;;22.30;99.90;;;;;;5025575;28;20180;-91
2021/07/31 10:35:04;;;;;;;6.17;2.83;;;22.40;99.90;;;;;;5033563;28;20187;-91
2021/07/31 10:37:34;;;;;;;5.10;3.00;;;22.30;99.90;;;;;;5023158;28;20183;-91
2021/07/31 10:40:08;;;;;;;4.23;2.60;;;22.10;99.90;;;;;;5029859;28;20191;-91
2021/07/31 10:42:52;;;;;;;5.03;2.77;;;22.00;99.90;;;;;;5031097;28;20188;-91
2021/07/31 10:45:31;;;;;;;5.90;2.40;;;21.70;99.90;;;;;;5028957;28;20207;-90
2021/07/31 10:48:28;;;;;;;2.73;1.80;;;21.40;99.90;;;;;;5028076;28;20232;-90
2021/07/31 10:50:54;;;;;;;3.90;2.37;;;21.10;99.90;;;;;;5023172;28;20190;-91
2021/07/31 10:53:46;;;;;;;4.73;2.07;;;21.40;99.90;;;;;;5029727;28;20190;-92
2021/07/31 10:56:14;;;;;;;3.70;1.97;;;21.60;99.90;;;;;;5027168;28;20179;-90
2021/07/31 10:59:14;;;;;;;3.07;1.70;;;21.70;99.50;;;;;;5016725;28;20193;-91
2021/07/31 11:01:43;;;;;;;4.40;2.10;;;21.40;99.60;;;;;;5019440;28;20191;-91
2021/07/31 11:04:49;;;;;;;4.53;2.20;;;21.40;99.80;;;;;;5019490;28;20180;-93
2021/07/31 11:07:18;;;;;;;3.93;2.40;;;21.50;99.30;;;;;;5008863;28;20394;-90
2021/07/31 11:10:22;;;;;;;21.00;11.30;;;21.60;99.10;;;;;;5018247;28;20233;-91
2021/07/31 11:12:48;;;;;;;5.23;3.30;;;22.00;98.80;;;;;;5021846;28;20207;-91
2021/07/31 11:15:14;;;;;;;6.57;3.47;;;22.30;98.00;;;;;;5025083;28;20217;-91
2021/07/31 11:17:39;;;;;;;4.07;2.60;;;22.60;97.60;;;;;;5016882;28;20320;-90
2021/07/31 11:20:32;;;;;;;3.67;2.13;;;22.80;97.00;;;;;;5018506;28;20216;-88
2021/07/31 11:23:04;;;;;;;6.30;3.53;;;23.20;96.40;;;;;;5030860;28;20678;-92
2021/07/31 11:25:30;;;;;;;3.57;1.87;;;23.40;96.30;;;;;;5023084;28;20697;-91
2021/07/31 11:27:57;;;;;;;5.07;2.27;;;23.50;97.10;;;;;;5024553;28;20188;-92
2021/07/31 11:30:46;;;;;;;5.77;2.10;;;23.50;97.30;;;;;;5004439;28;20393;-92
2021/07/31 11:33:24;;;;;;;4.53;2.70;;;23.70;96.70;;;;;;5011679;28;20183;-91
2021/07/31 11:35:55;;;;;;;6.00;2.70;;;24.10;97.30;;;;;;5016494;28;20214;-91
2021/07/31 11:38:25;;;;;;;6.57;3.20;;;24.20;97.20;;;;;;5014783;28;20236;-92
2021/07/31 11:40:59;;;;;;;9.57;2.90;;;24.10;97.20;;;;;;5018038;28;20197;-90
2021/07/31 11:43:25;;;;;;;5.13;3.07;;;23.90;97.70;;;;;;5012648;28;20180;-90
2021/07/31 11:45:52;;;;;;;6.00;2.83;;;23.80;98.10;;;;;;5015284;28;20208;-91
2021/07/31 11:48:18;;;;;;;4.97;2.87;;;23.90;98.00;;;;;;5016044;28;20303;-91
2021/07/31 11:51:03;;;;;;;5.73;3.00;;;24.00;98.10;;;;;;5021663;28;20248;-92
2021/07/31 11:53:29;;;;;;;5.23;2.33;;;24.30;97.70;;;;;;5021770;28;20267;-92
2021/07/31 11:56:18;;;;;;;3.67;2.17;;;24.50;97.30;;;;;;5021961;28;20184;-93
2021/07/31 11:58:45;;;;;;;5.27;3.00;;;24.60;95.80;;;;;;5009578;28;20197;-93
2021/07/31 12:01:12;;;;;;;5.73;2.50;;;24.90;95.30;;;;;;5024014;28;20567;-92
2021/07/31 12:03:41;;;;;;;3.87;2.53;;;24.80;95.50;;;;;;5018474;28;20188;-91
2021/07/31 12:06:29;;;;;;;5.50;2.83;;;24.50;96.20;;;;;;5017558;28;20220;-90
2021/07/31 12:09:00;;;;;;;7.40;2.97;;;24.00;96.70;;;;;;5020387;28;20220;-89
2021/07/31 12:11:52;;;;;;;4.47;3.00;;;23.60;97.60;;;;;;5028916;28;20638;-91
2021/07/31 12:14:37;;;;;;;7.40;3.27;;;23.40;98.40;;;;;;5035957;28;20660;-91
2021/07/31 12:17:17;;;;;;;5.30;3.20;;;23.30;98.50;;;;;;5037505;28;20173;-91
2021/07/31 12:19:46;;;;;;;5.73;3.07;;;23.10;98.30;;;;;;5044006;28;20250;-90
2021/07/31 12:22:20;;;;;;;4.93;3.40;;;22.70;99.10;;;;;;5037298;28;20188;-90
2021/07/31 12:25:11;;;;;;;4.97;2.90;;;22.70;99.40;;;;;;5045776;28;20215;-90
2021/07/31 12:28:09;;;;;;;6.63;3.00;;;23.00;98.80;;;;;;5027941;28;20188;-89
2021/07/31 12:30:35;;;;;;;5.80;3.10;;;23.30;98.30;;;;;;5036685;28;20248;-90
2021/07/31 12:33:01;;;;;;;5.27;2.70;;;23.70;97.80;;;;;;5027286;28;20279;-90
2021/07/31 12:35:33;;;;;;;4.60;2.43;;;24.20;97.70;;;;;;5031590;28;20194;-91
2021/07/31 12:37:59;;;;;;;3.67;2.27;;;25.20;95.60;;;;;;5040624;28;20189;-89
2021/07/31 12:40:24;;;;;;;3.70;1.90;;;25.90;94.30;;;;;;5047211;28;20189;-89
2021/07/31 12:42:50;;;;;;;4.47;2.03;;;25.90;94.30;;;;;;5043980;28;20628;-91
2021/07/31 12:45:16;;;;;;;5.17;2.00;;;25.90;93.20;;;;;;5045232;28;20207;-92
2021/07/31 12:47:42;;;;;;;5.10;2.17;;;25.70;93.70;;;;;;5040785;28;20189;-89
2021/07/31 12:50:12;;;;;;;6.63;1.97;;;26.60;93.50;;;;;;5059791;28;20190;-91
2021/07/31 12:52:37;;;;;;;2.73;1.70;;;28.10;91.60;;;;;;5042124;28;20176;-92
2021/07/31 12:55:03;;;;;;;5.63;1.63;;;29.10;89.90;;;;;;5033784;28;20204;-90
2021/07/31 12:57:30;;;;;;;2.67;1.70;;;29.10;87.30;;;;;;5034418;28;20214;-88
2021/07/31 12:59:56;;;;;;;4.70;2.33;;;28.70;88.00;;;;;;5038431;28;20168;-90
2021/07/31 13:02:22;;;;;;;2.10;1.50;;;27.90;88.40;;;;;;5042684;28;20206;-90